sensor_id;sensor_type;location;lat;lon;timestamp;pressure;altitude;pressure_sealevel;temperature;humidity
14273;BME280;7220;49.450;11.052;2022-11-27T00:03:15;99543.16;;;3.14;100.00
14273;BME280;7220;49.450;11.052;2022-11-27T00:07:16;99543.16;;;3.09;100.00
14273;BME280;7220;49.450;11.052;2022-11-27T00:11:21;99538.81;;;2.96;100.00
14273;BME280;7220;49.450;11.052;2022-11-27T00:15:22;99532.72;;;2.95;100.00
14273;BME280;7220;49.450;11.052;2022-11-27T00:19:22;99518.69;;;2.90;100.00
14273;BME280;7220;49.450;11.052;2022-11-27T00:23:22;99503.81;;;2.83;100.00
14273;BME280;7220;49.450;11.052;2022-11-27T00:27:23;99502.94;;;2.81;100.00
14273;BME280;7220;49.450;11.052;2022-11-27T00:31:27;99492.44;;;2.81;100.00
14273;BME280;7220;49.450;11.052;2022-11-27T00:35:28;99495.09;;;2.76;100.00
14273;BME280;7220;49.450;11.052;2022-11-27T00:39:28;99467.09;;;2.75;100.00
14273;BME280;7220;49.450;11.052;2022-11-27T00:43:28;99481.97;;;2.68;100.00
14273;BME280;7220;49.450;11.052;2022-11-27T00:47:29;99480.22;;;2.58;100.00
14273;BME280;7220;49.450;11.052;2022-11-27T00:51:29;99482.88;;;2.50;100.00
14273;BME280;7220;49.450;11.052;2022-11-27T00:55:29;99477.59;;;2.47;100.00
14273;BME280;7220;49.450;11.052;2022-11-27T00:59:30;99484.63;;;2.42;100.00
14273;BME280;7220;49.450;11.052;2022-11-27T01:03:31;99492.47;;;2.41;100.00
14273;BME280;7220;49.450;11.052;2022-11-27T01:07:31;99479.38;;;2.28;100.00
14273;BME280;7220;49.450;11.052;2022-11-27T01:11:33;99492.47;;;2.25;100.00
14273;BME280;7220;49.450;11.052;2022-11-27T01:15:34;99482.84;;;2.12;100.00
14273;BME280;7220;49.450;11.052;2022-11-27T01:19:34;99477.59;;;2.10;100.00
14273;BME280;7220;49.450;11.052;2022-11-27T01:23:34;99476.72;;;2.07;100.00
14273;BME280;7220;49.450;11.052;2022-11-27T01:27:35;99468.84;;;2.02;100.00
14273;BME280;7220;49.450;11.052;2022-11-27T01:31:36;99468.84;;;1.93;100.00
14273;BME280;7220;49.450;11.052;2022-11-27T01:35:36;99475.78;;;1.80;100.00
14273;BME280;7220;49.450;11.052;2022-11-27T01:39:36;99461.81;;;1.75;100.00
14273;BME280;7220;49.450;11.052;2022-11-27T01:47:47;99460.91;;;1.60;100.00
14273;BME280;7220;49.450;11.052;2022-11-27T01:51:58;99457.38;;;1.55;100.00
14273;BME280;7220;49.450;11.052;2022-11-27T01:56:00;99446.88;;;1.42;100.00
14273;BME280;7220;49.450;11.052;2022-11-27T02:00:04;99447.72;;;1.38;100.00
14273;BME280;7220;49.450;11.052;2022-11-27T02:04:05;99433.75;;;1.35;100.00
14273;BME280;7220;49.450;11.052;2022-11-27T02:08:08;99438.09;;;1.37;100.00
14273;BME280;7220;49.450;11.052;2022-11-27T02:12:32;99432.00;;;1.37;100.00
14273;BME280;7220;49.450;11.052;2022-11-27T02:16:47;99429.38;;;1.34;100.00
14273;BME280;7220;49.450;11.052;2022-11-27T02:21:00;99419.78;;;1.28;100.00
14273;BME280;7220;49.450;11.052;2022-11-27T02:29:12;99410.09;;;1.15;100.00
14273;BME280;7220;49.450;11.052;2022-11-27T02:33:17;99408.34;;;1.10;100.00
14273;BME280;7220;49.450;11.052;2022-11-27T02:42:19;99427.50;;;1.00;100.00
14273;BME280;7220;49.450;11.052;2022-11-27T02:46:20;99416.13;;;0.98;100.00
14273;BME280;7220;49.450;11.052;2022-11-27T02:50:23;99406.56;;;1.00;100.00
14273;BME280;7220;49.450;11.052;2022-11-27T02:54:27;99409.19;;;1.03;100.00
14273;BME280;7220;49.450;11.052;2022-11-27T02:58:29;99398.69;;;1.02;100.00
14273;BME280;7220;49.450;11.052;2022-11-27T03:02:32;99393.47;;;1.06;100.00
14273;BME280;7220;49.450;11.052;2022-11-27T03:06:54;99386.47;;;0.98;100.00
14273;BME280;7220;49.450;11.052;2022-11-27T03:11:05;99380.31;;;0.92;100.00
14273;BME280;7220;49.450;11.052;2022-11-27T03:15:06;99368.97;;;0.87;100.00
14273;BME280;7220;49.450;11.052;2022-11-27T03:23:16;99355.84;;;0.78;100.00
14273;BME280;7220;49.450;11.052;2022-11-27T03:27:28;99354.13;;;0.80;100.00
14273;BME280;7220;49.450;11.052;2022-11-27T03:31:30;99360.22;;;0.85;100.00
14273;BME280;7220;49.450;11.052;2022-11-27T03:35:30;99365.50;;;0.90;100.00
14273;BME280;7220;49.450;11.052;2022-11-27T03:39:31;99355.03;;;0.93;100.00
14273;BME280;7220;49.450;11.052;2022-11-27T03:43:38;99355.94;;;0.98;100.00
14273;BME280;7220;49.450;11.052;2022-11-27T03:52:11;99356.84;;;1.03;100.00
14273;BME280;7220;49.450;11.052;2022-11-27T04:00:22;99344.59;;;0.91;100.00
14273;BME280;7220;49.450;11.052;2022-11-27T04:04:23;99357.66;;;0.94;100.00
14273;BME280;7220;49.450;11.052;2022-11-27T04:08:23;99356.78;;;0.92;100.00
14273;BME280;7220;49.450;11.052;2022-11-27T04:12:24;99363.75;;;0.92;100.00
14273;BME280;7220;49.450;11.052;2022-11-27T04:16:24;99359.38;;;0.91;100.00
14273;BME280;7220;49.450;11.052;2022-11-27T04:20:25;99349.78;;;0.84;100.00
14273;BME280;7220;49.450;11.052;2022-11-27T04:24:25;99358.50;;;0.86;100.00
14273;BME280;7220;49.450;11.052;2022-11-27T04:28:25;99361.94;;;0.77;100.00
14273;BME280;7220;49.450;11.052;2022-11-27T04:32:25;99358.47;;;0.76;100.00
14273;BME280;7220;49.450;11.052;2022-11-27T04:36:26;99364.59;;;0.78;100.00
14273;BME280;7220;49.450;11.052;2022-11-27T04:40:26;99357.59;;;0.77;100.00
14273;BME280;7220;49.450;11.052;2022-11-27T04:44:26;99341.91;;;0.77;100.00
14273;BME280;7220;49.450;11.052;2022-11-27T04:48:26;99343.66;;;0.78;100.00
14273;BME280;7220;49.450;11.052;2022-11-27T04:52:27;99357.56;;;0.74;100.00
14273;BME280;7220;49.450;11.052;2022-11-27T04:56:27;99370.66;;;0.74;100.00
14273;BME280;7220;49.450;11.052;2022-11-27T05:00:27;99374.13;;;0.73;100.00
14273;BME280;7220;49.450;11.052;2022-11-27T05:04:28;99366.28;;;0.73;100.00
14273;BME280;7220;49.450;11.052;2022-11-27T05:08:30;99362.81;;;0.74;100.00
14273;BME280;7220;49.450;11.052;2022-11-27T05:12:30;99350.59;;;0.70;100.00
14273;BME280;7220;49.450;11.052;2022-11-27T05:16:30;99357.56;;;0.68;100.00
14273;BME280;7220;49.450;11.052;2022-11-27T05:20:31;99354.03;;;0.60;100.00
14273;BME280;7220;49.450;11.052;2022-11-27T05:24:31;99357.50;;;0.59;100.00
14273;BME280;7220;49.450;11.052;2022-11-27T05:28:32;99356.59;;;0.47;100.00
14273;BME280;7220;49.450;11.052;2022-11-27T05:32:32;99360.84;;;0.38;100.00
14273;BME280;7220;49.450;11.052;2022-11-27T05:36:33;99366.06;;;0.30;100.00
14273;BME280;7220;49.450;11.052;2022-11-27T08:40:10;99266.09;;;8.86;100.00
14273;BME280;7220;49.450;11.052;2022-11-27T08:44:10;99266.72;;;8.31;100.00
14273;BME280;7220;49.450;11.052;2022-11-27T08:48:11;99273.47;;;7.76;100.00
14273;BME280;7220;49.450;11.052;2022-11-27T08:52:11;99257.03;;;7.25;100.00
14273;BME280;7220;49.450;11.052;2022-11-27T08:56:17;99260.31;;;6.95;100.00
14273;BME280;7220;49.450;11.052;2022-11-27T09:00:18;99250.72;;;6.49;100.00
14273;BME280;7220;49.450;11.052;2022-11-27T09:04:18;99260.19;;;6.14;100.00
14273;BME280;7220;49.450;11.052;2022-11-27T09:08:19;99271.91;;;5.96;100.00
14273;BME280;7220;49.450;11.052;2022-11-27T09:12:20;99262.78;;;5.64;100.00
14273;BME280;7220;49.450;11.052;2022-11-27T09:16:21;99272.84;;;5.40;100.00
14273;BME280;7220;49.450;11.052;2022-11-27T09:20:21;99276.81;;;5.08;100.00
14273;BME280;7220;49.450;11.052;2022-11-27T09:24:22;99269.88;;;5.01;100.00
14273;BME280;7220;49.450;11.052;2022-11-27T09:28:22;99279.56;;;4.99;100.00
14273;BME280;7220;49.450;11.052;2022-11-27T09:32:22;99274.59;;;4.77;100.00
14273;BME280;7220;49.450;11.052;2022-11-27T09:36:24;99263.19;;;4.75;100.00
14273;BME280;7220;49.450;11.052;2022-11-27T09:40:25;99253.75;;;4.60;100.00
14273;BME280;7220;49.450;11.052;2022-11-27T09:48:45;99246.75;;;4.57;100.00
14273;BME280;7220;49.450;11.052;2022-11-27T09:52:53;99245.06;;;4.50;100.00
14273;BME280;7220;49.450;11.052;2022-11-27T09:56:55;99234.53;;;4.53;100.00
14273;BME280;7220;49.450;11.052;2022-11-27T10:00:55;99216.16;;;4.49;100.00
14273;BME280;7220;49.450;11.052;2022-11-27T10:04:56;99222.25;;;4.49;100.00
14273;BME280;7220;49.450;11.052;2022-11-27T10:21:38;99224.84;;;4.55;100.00
14273;BME280;7220;49.450;11.052;2022-11-27T10:29:49;99208.16;;;4.56;100.00
14273;BME280;7220;49.450;11.052;2022-11-27T10:34:01;99194.91;;;4.61;100.00
14273;BME280;7220;49.450;11.052;2022-11-27T10:38:10;99214.22;;;4.62;100.00
14273;BME280;7220;49.450;11.052;2022-11-27T10:42:38;99202.75;;;4.66;100.00
14273;BME280;7220;49.450;11.052;2022-11-27T10:46:40;99187.84;;;4.65;100.00
14273;BME280;7220;49.450;11.052;2022-11-27T10:50:42;99185.22;;;4.65;100.00
14273;BME280;7220;49.450;11.052;2022-11-27T10:54:45;99160.69;;;4.63;100.00
14273;BME280;7220;49.450;11.052;2022-11-27T11:03:00;99162.22;;;4.79;100.00
14273;BME280;7220;49.450;11.052;2022-11-27T11:07:00;99152.56;;;4.78;100.00
14273;BME280;7220;49.450;11.052;2022-11-27T11:11:03;99139.31;;;4.81;100.00
14273;BME280;7220;49.450;11.052;2022-11-27T11:15:09;99121.00;;;4.75;100.00
14273;BME280;7220;49.450;11.052;2022-11-27T11:27:30;99099.66;;;4.94;100.00
14273;BME280;7220;49.450;11.052;2022-11-27T11:31:35;99107.22;;;5.14;100.00
14273;BME280;7220;49.450;11.052;2022-11-27T11:35:36;99098.38;;;5.16;100.00
14273;BME280;7220;49.450;11.052;2022-11-27T11:39:43;99102.81;;;5.14;100.00
14273;BME280;7220;49.450;11.052;2022-11-27T11:43:58;99090.44;;;5.18;100.00
14273;BME280;7220;49.450;11.052;2022-11-27T11:48:02;99075.63;;;5.12;100.00
14273;BME280;7220;49.450;11.052;2022-11-27T11:52:08;99077.34;;;5.13;100.00
14273;BME280;7220;49.450;11.052;2022-11-27T11:56:27;99064.25;;;5.10;100.00
14273;BME280;7220;49.450;11.052;2022-11-27T12:00:43;99051.91;;;5.12;100.00
14273;BME280;7220;49.450;11.052;2022-11-27T12:09:26;99044.56;;;5.30;100.00
14273;BME280;7220;49.450;11.052;2022-11-27T12:18:18;99038.31;;;5.35;100.00
14273;BME280;7220;49.450;11.052;2022-11-27T12:31:36;99015.16;;;5.50;100.00
14273;BME280;7220;49.450;11.052;2022-11-27T12:35:51;99016.88;;;5.54;100.00
14273;BME280;7220;49.450;11.052;2022-11-27T12:40:18;98999.44;;;5.45;100.00
14273;BME280;7220;49.450;11.052;2022-11-27T12:52:58;98992.66;;;5.33;100.00
14273;BME280;7220;49.450;11.052;2022-11-27T12:57:01;98983.13;;;5.28;100.00
14273;BME280;7220;49.450;11.052;2022-11-27T13:01:09;98984.84;;;5.29;100.00
14273;BME280;7220;49.450;11.052;2022-11-27T13:05:23;98979.59;;;5.29;100.00
14273;BME280;7220;49.450;11.052;2022-11-27T13:09:41;98993.44;;;5.37;100.00
14273;BME280;7220;49.450;11.052;2022-11-27T13:13:48;98987.31;;;5.36;100.00
14273;BME280;7220;49.450;11.052;2022-11-27T13:17:58;98981.13;;;5.41;100.00
14273;BME280;7220;49.450;11.052;2022-11-27T13:22:02;98984.56;;;5.44;100.00
14273;BME280;7220;49.450;11.052;2022-11-27T13:26:10;98968.97;;;5.32;100.00
14273;BME280;7220;49.450;11.052;2022-11-27T13:30:29;98982.81;;;5.43;100.00
14273;BME280;7220;49.450;11.052;2022-11-27T13:34:32;98980.09;;;5.46;100.00
14273;BME280;7220;49.450;11.052;2022-11-27T13:38:36;98959.03;;;5.45;100.00
14273;BME280;7220;49.450;11.052;2022-11-27T13:42:43;98963.25;;;5.53;100.00
14273;BME280;7220;49.450;11.052;2022-11-27T13:46:45;98939.59;;;5.50;100.00
14273;BME280;7220;49.450;11.052;2022-11-27T13:50:53;98935.19;;;5.51;100.00
14273;BME280;7220;49.450;11.052;2022-11-27T13:54:59;98939.47;;;5.57;100.00
14273;BME280;7220;49.450;11.052;2022-11-27T13:59:21;98936.97;;;5.50;100.00
14273;BME280;7220;49.450;11.052;2022-11-27T14:03:26;98940.59;;;5.45;100.00
14273;BME280;7220;49.450;11.052;2022-11-27T14:07:41;98924.97;;;5.35;100.00
14273;BME280;7220;49.450;11.052;2022-11-27T14:11:44;98930.97;;;5.42;100.00
14273;BME280;7220;49.450;11.052;2022-11-27T14:15:57;98917.81;;;5.42;100.00
14273;BME280;7220;49.450;11.052;2022-11-27T14:20:17;98922.88;;;5.51;100.00
14273;BME280;7220;49.450;11.052;2022-11-27T14:28:25;98920.31;;;5.48;100.00
14273;BME280;7220;49.450;11.052;2022-11-27T14:32:33;98933.44;;;5.51;100.00
14273;BME280;7220;49.450;11.052;2022-11-27T14:36:34;98920.16;;;5.56;100.00
14273;BME280;7220;49.450;11.052;2022-11-27T14:40:37;98914.66;;;5.65;100.00
14273;BME280;7220;49.450;11.052;2022-11-27T14:44:38;98901.50;;;5.64;100.00
14273;BME280;7220;49.450;11.052;2022-11-27T14:48:42;98899.97;;;5.53;100.00
14273;BME280;7220;49.450;11.052;2022-11-27T14:52:50;98888.72;;;5.45;100.00
14273;BME280;7220;49.450;11.052;2022-11-27T14:56:52;98886.22;;;5.41;100.00
14273;BME280;7220;49.450;11.052;2022-11-27T15:01:04;98885.50;;;5.32;100.00
14273;BME280;7220;49.450;11.052;2022-11-27T15:05:05;98870.69;;;5.27;100.00
14273;BME280;7220;49.450;11.052;2022-11-27T15:09:21;98870.59;;;5.30;100.00
14273;BME280;7220;49.450;11.052;2022-11-27T15:13:25;98858.34;;;5.29;100.00
14273;BME280;7220;49.450;11.052;2022-11-27T15:17:27;98860.22;;;5.24;100.00
14273;BME280;7220;49.450;11.052;2022-11-27T15:21:29;98844.53;;;5.17;100.00
14273;BME280;7220;49.450;11.052;2022-11-27T15:25:35;98844.41;;;5.24;100.00
14273;BME280;7220;49.450;11.052;2022-11-27T15:29:36;98838.31;;;5.20;100.00
14273;BME280;7220;49.450;11.052;2022-11-27T15:33:39;98831.66;;;5.03;100.00
14273;BME280;7220;49.450;11.052;2022-11-27T15:37:40;98827.31;;;5.01;100.00
14273;BME280;7220;49.450;11.052;2022-11-27T15:41:56;98816.81;;;4.98;100.00
14273;BME280;7220;49.450;11.052;2022-11-27T15:45:56;98831.03;;;4.92;100.00
14273;BME280;7220;49.450;11.052;2022-11-27T15:49:57;98817.84;;;4.90;100.00
14273;BME280;7220;49.450;11.052;2022-11-27T15:53:58;98821.34;;;4.93;100.00
14273;BME280;7220;49.450;11.052;2022-11-27T15:57:58;98819.56;;;4.93;100.00
14273;BME280;7220;49.450;11.052;2022-11-27T16:01:59;98821.25;;;4.97;100.00
14273;BME280;7220;49.450;11.052;2022-11-27T16:06:04;98804.59;;;4.95;100.00
14273;BME280;7220;49.450;11.052;2022-11-27T16:10:05;98794.16;;;4.90;100.00
14273;BME280;7220;49.450;11.052;2022-11-27T16:14:05;98787.22;;;4.86;100.00
14273;BME280;7220;49.450;11.052;2022-11-27T16:18:06;98772.28;;;4.88;100.00
14273;BME280;7220;49.450;11.052;2022-11-27T16:22:06;98743.50;;;4.78;100.00
14273;BME280;7220;49.450;11.052;2022-11-27T16:26:09;98752.09;;;4.87;100.00
14273;BME280;7220;49.450;11.052;2022-11-27T16:30:11;98739.00;;;4.84;100.00
14273;BME280;7220;49.450;11.052;2022-11-27T16:34:13;98724.03;;;4.85;100.00
14273;BME280;7220;49.450;11.052;2022-11-27T16:38:14;98715.34;;;4.81;100.00
14273;BME280;7220;49.450;11.052;2022-11-27T16:42:14;98713.69;;;4.77;100.00
14273;BME280;7220;49.450;11.052;2022-11-27T16:46:18;98693.53;;;4.76;100.00
14273;BME280;7220;49.450;11.052;2022-11-27T16:50:19;98679.59;;;4.71;100.00
14273;BME280;7220;49.450;11.052;2022-11-27T16:54:19;98680.66;;;4.64;100.00
14273;BME280;7220;49.450;11.052;2022-11-27T16:58:19;98690.25;;;4.66;100.00
14273;BME280;7220;49.450;11.052;2022-11-27T17:02:19;98677.03;;;4.68;100.00
14273;BME280;7220;49.450;11.052;2022-11-27T17:06:23;98669.19;;;4.66;100.00
14273;BME280;7220;49.450;11.052;2022-11-27T17:10:24;98674.41;;;4.68;100.00
14273;BME280;7220;49.450;11.052;2022-11-27T17:14:25;98680.75;;;4.57;100.00
14273;BME280;7220;49.450;11.052;2022-11-27T17:18:26;98691.28;;;4.59;100.00
14273;BME280;7220;49.450;11.052;2022-11-27T17:22:26;98685.22;;;4.54;100.00
14273;BME280;7220;49.450;11.052;2022-11-27T17:26:31;98693.13;;;4.54;100.00
14273;BME280;7220;49.450;11.052;2022-11-27T17:30:31;98679.28;;;4.44;100.00
14273;BME280;7220;49.450;11.052;2022-11-27T17:34:32;98694.25;;;4.42;100.00
14273;BME280;7220;49.450;11.052;2022-11-27T17:38:35;98698.47;;;4.49;100.00
14273;BME280;7220;49.450;11.052;2022-11-27T17:42:35;98693.44;;;4.40;100.00
14273;BME280;7220;49.450;11.052;2022-11-27T17:46:36;98685.41;;;4.46;100.00
14273;BME280;7220;49.450;11.052;2022-11-27T17:50:36;98692.41;;;4.47;100.00
14273;BME280;7220;49.450;11.052;2022-11-27T17:54:38;98687.94;;;4.51;100.00
14273;BME280;7220;49.450;11.052;2022-11-27T17:58:38;98672.28;;;4.43;100.00
14273;BME280;7220;49.450;11.052;2022-11-27T18:02:39;98687.09;;;4.49;100.00
14273;BME280;7220;49.450;11.052;2022-11-27T18:06:39;98676.56;;;4.49;100.00
14273;BME280;7220;49.450;11.052;2022-11-27T18:10:39;98668.81;;;4.41;100.00
14273;BME280;7220;49.450;11.052;2022-11-27T18:14:40;98686.09;;;4.54;100.00
14273;BME280;7220;49.450;11.052;2022-11-27T18:18:40;98678.22;;;4.54;100.00
14273;BME280;7220;49.450;11.052;2022-11-27T18:22:41;98670.31;;;4.54;100.00
14273;BME280;7220;49.450;11.052;2022-11-27T18:26:41;98641.25;;;4.59;100.00
14273;BME280;7220;49.450;11.052;2022-11-27T18:30:41;98628.06;;;4.61;100.00
14273;BME280;7220;49.450;11.052;2022-11-27T18:34:42;98626.31;;;4.60;100.00
14273;BME280;7220;49.450;11.052;2022-11-27T18:38:43;98609.66;;;4.59;100.00
14273;BME280;7220;49.450;11.052;2022-11-27T18:42:46;98609.63;;;4.61;100.00
14273;BME280;7220;49.450;11.052;2022-11-27T18:46:47;98595.78;;;4.52;100.00
14273;BME280;7220;49.450;11.052;2022-11-27T18:50:47;98596.63;;;4.54;100.00
14273;BME280;7220;49.450;11.052;2022-11-27T18:54:47;98591.50;;;4.48;100.00
14273;BME280;7220;49.450;11.052;2022-11-27T18:58:48;98581.88;;;4.47;100.00
14273;BME280;7220;49.450;11.052;2022-11-27T19:02:48;98572.09;;;4.52;100.00
14273;BME280;7220;49.450;11.052;2022-11-27T19:06:49;98557.97;;;4.55;100.00
14273;BME280;7220;49.450;11.052;2022-11-27T19:10:49;98553.59;;;4.55;100.00
14273;BME280;7220;49.450;11.052;2022-11-27T19:14:49;98558.72;;;4.62;100.00
14273;BME280;7220;49.450;11.052;2022-11-27T19:18:50;98558.81;;;4.57;100.00
14273;BME280;7220;49.450;11.052;2022-11-27T19:22:51;98552.69;;;4.56;100.00
14273;BME280;7220;49.450;11.052;2022-11-27T19:26:51;98535.53;;;4.40;100.00
14273;BME280;7220;49.450;11.052;2022-11-27T19:30:51;98544.25;;;4.42;100.00
14273;BME280;7220;49.450;11.052;2022-11-27T19:34:52;98564.34;;;4.46;100.00
14273;BME280;7220;49.450;11.052;2022-11-27T19:38:54;98560.97;;;4.39;100.00
14273;BME280;7220;49.450;11.052;2022-11-27T19:42:55;98557.50;;;4.37;100.00
14273;BME280;7220;49.450;11.052;2022-11-27T19:46:55;98554.03;;;4.37;100.00
14273;BME280;7220;49.450;11.052;2022-11-27T19:51:00;98546.16;;;4.35;100.00
14273;BME280;7220;49.450;11.052;2022-11-27T19:55:01;98533.06;;;4.32;100.00
14273;BME280;7220;49.450;11.052;2022-11-27T19:59:01;98536.56;;;4.33;100.00
14273;BME280;7220;49.450;11.052;2022-11-27T20:03:02;98533.97;;;4.31;100.00
14273;BME280;7220;49.450;11.052;2022-11-27T20:07:02;98530.41;;;4.34;100.00
14273;BME280;7220;49.450;11.052;2022-11-27T20:11:05;98522.53;;;4.32;100.00
14273;BME280;7220;49.450;11.052;2022-11-27T20:15:09;98517.31;;;4.31;100.00
14273;BME280;7220;49.450;11.052;2022-11-27T20:19:13;98514.75;;;4.28;100.00
14273;BME280;7220;49.450;11.052;2022-11-27T20:23:13;98507.06;;;4.18;100.00
14273;BME280;7220;49.450;11.052;2022-11-27T20:27:14;98516.50;;;4.29;100.00
14273;BME280;7220;49.450;11.052;2022-11-27T20:31:26;98514.69;;;4.31;100.00
14273;BME280;7220;49.450;11.052;2022-11-27T20:35:27;98505.28;;;4.20;100.00
14273;BME280;7220;49.450;11.052;2022-11-27T20:39:27;98484.44;;;4.11;100.00
14273;BME280;7220;49.450;11.052;2022-11-27T20:43:28;98488.84;;;4.10;100.00
14273;BME280;7220;49.450;11.052;2022-11-27T20:47:28;98500.31;;;4.08;100.00
14273;BME280;7220;49.450;11.052;2022-11-27T20:51:30;98514.41;;;4.04;100.00
14273;BME280;7220;49.450;11.052;2022-11-27T20:55:33;98486.44;;;4.01;100.00
14273;BME280;7220;49.450;11.052;2022-11-27T20:59:33;98476.75;;;4.03;100.00
14273;BME280;7220;49.450;11.052;2022-11-27T21:03:34;98484.53;;;4.06;100.00
14273;BME280;7220;49.450;11.052;2022-11-27T21:07:38;98466.06;;;4.09;100.00
14273;BME280;7220;49.450;11.052;2022-11-27T21:11:40;98455.59;;;4.08;100.00
14273;BME280;7220;49.450;11.052;2022-11-27T21:15:45;98466.13;;;4.08;100.00
14273;BME280;7220;49.450;11.052;2022-11-27T21:19:46;98453.03;;;4.05;100.00
14273;BME280;7220;49.450;11.052;2022-11-27T21:23:47;98453.88;;;4.07;100.00
14273;BME280;7220;49.450;11.052;2022-11-27T21:27:47;98451.34;;;4.01;100.00
14273;BME280;7220;49.450;11.052;2022-11-27T21:31:48;98443.66;;;3.93;100.00
14273;BME280;7220;49.450;11.052;2022-11-27T21:35:53;98435.81;;;3.90;100.00
14273;BME280;7220;49.450;11.052;2022-11-27T21:39:54;98435.94;;;3.85;100.00
14273;BME280;7220;49.450;11.052;2022-11-27T21:43:57;98443.75;;;3.88;100.00
14273;BME280;7220;49.450;11.052;2022-11-27T21:47:58;98439.50;;;3.84;100.00
14273;BME280;7220;49.450;11.052;2022-11-27T21:51:58;98440.50;;;3.77;100.00
14273;BME280;7220;49.450;11.052;2022-11-27T21:56:03;98428.97;;;3.83;100.00
14273;BME280;7220;49.450;11.052;2022-11-27T22:00:04;98430.66;;;3.85;100.00
14273;BME280;7220;49.450;11.052;2022-11-27T22:04:05;98421.97;;;3.83;100.00
14273;BME280;7220;49.450;11.052;2022-11-27T22:08:05;98414.09;;;3.83;100.00
14273;BME280;7220;49.450;11.052;2022-11-27T22:12:05;98406.31;;;3.78;100.00
14273;BME280;7220;49.450;11.052;2022-11-27T22:16:26;98395.91;;;3.74;100.00
14273;BME280;7220;49.450;11.052;2022-11-27T22:20:28;98395.13;;;3.69;100.00
14273;BME280;7220;49.450;11.052;2022-11-27T22:24:28;98388.22;;;3.65;100.00
14273;BME280;7220;49.450;11.052;2022-11-27T22:28:29;98386.47;;;3.63;100.00
14273;BME280;7220;49.450;11.052;2022-11-27T22:32:29;98375.97;;;3.63;100.00
14273;BME280;7220;49.450;11.052;2022-11-27T22:36:32;98380.38;;;3.61;100.00
14273;BME280;7220;49.450;11.052;2022-11-27T22:40:32;98377.91;;;3.55;100.00
14273;BME280;7220;49.450;11.052;2022-11-27T22:44:33;98382.28;;;3.56;100.00
14273;BME280;7220;49.450;11.052;2022-11-27T22:48:33;98370.03;;;3.55;100.00
14273;BME280;7220;49.450;11.052;2022-11-27T22:52:33;98383.97;;;3.59;100.00
14273;BME280;7220;49.450;11.052;2022-11-27T22:56:34;98381.38;;;3.57;100.00
14273;BME280;7220;49.450;11.052;2022-11-27T23:00:35;98371.81;;;3.55;100.00
14273;BME280;7220;49.450;11.052;2022-11-27T23:04:36;98381.44;;;3.54;100.00
14273;BME280;7220;49.450;11.052;2022-11-27T23:08:38;98367.47;;;3.52;100.00
14273;BME280;7220;49.450;11.052;2022-11-27T23:12:39;98346.41;;;3.54;100.00
14273;BME280;7220;49.450;11.052;2022-11-27T23:16:40;98343.69;;;3.58;100.00
14273;BME280;7220;49.450;11.052;2022-11-27T23:20:41;98340.13;;;3.61;100.00
14273;BME280;7220;49.450;11.052;2022-11-27T23:24:41;98326.19;;;3.57;100.00
14273;BME280;7220;49.450;11.052;2022-11-27T23:28:43;98325.19;;;3.61;100.00
14273;BME280;7220;49.450;11.052;2022-11-27T23:32:44;98307.78;;;3.57;100.00
14273;BME280;7220;49.450;11.052;2022-11-27T23:36:44;98319.09;;;3.61;100.00
14273;BME280;7220;49.450;11.052;2022-11-27T23:40:44;98316.53;;;3.58;100.00
14273;BME280;7220;49.450;11.052;2022-11-27T23:44:45;98304.28;;;3.57;100.00
14273;BME280;7220;49.450;11.052;2022-11-27T23:48:45;98314.00;;;3.55;100.00
14273;BME280;7220;49.450;11.052;2022-11-27T23:52:45;98307.84;;;3.54;100.00
14273;BME280;7220;49.450;11.052;2022-11-27T23:56:49;98315.78;;;3.53;100.00
